DLH2MA EDDN-EDDM
Flight info
| Callsign | DLH2MA |
|---|---|
| Flight time | 0h 29m |
| Altitude | 14000 |
| Route | BOLSI1G BOLSI Y167 AKANU/N0368F130 L603 RENLO T466 ROKIL ROKIL1B |
| Aircraft | A320/M-SDE3FGHIRWY/LB1 |
Departure
| Time | 2026-05-07 12:41 |
|---|---|
| Airport | Nuremberg Airport (EDDN) |
Arrival
| Time | 2026-05-07 13:11 |
|---|---|
| Airport | Munich Airport (EDDM) |
| Time | Latitude | Longitude | Altitude | Speed | Heading |
|---|---|---|---|---|---|
| 2026-05-07 12:15 | 49.49541 | 11.07585 | 1026 ft | 0 kts | 188° |
| 2026-05-07 12:27 | 49.49561 | 11.07589 | 1026 ft | 3 kts | 182° |
| 2026-05-07 12:27 | 49.49585 | 11.07587 | 1026 ft | 3 kts | 162° |
| 2026-05-07 12:27 | 49.49603 | 11.07572 | 1024 ft | 3 kts | 115° |
| 2026-05-07 12:28 | 49.49606 | 11.07561 | 1024 ft | 0 kts | 98° |
| 2026-05-07 12:35 | 49.49605 | 11.07577 | 1024 ft | 5 kts | 98° |
| 2026-05-07 12:35 | 49.49595 | 11.07676 | 1026 ft | 14 kts | 98° |
| 2026-05-07 12:36 | 49.49577 | 11.07858 | 1027 ft | 18 kts | 98° |
| 2026-05-07 12:36 | 49.49565 | 11.07985 | 1027 ft | 17 kts | 98° |
| 2026-05-07 12:36 | 49.49543 | 11.08206 | 1026 ft | 14 kts | 99° |
| 2026-05-07 12:36 | 49.49533 | 11.08303 | 1029 ft | 13 kts | 96° |
| 2026-05-07 12:37 | 49.49582 | 11.08354 | 1032 ft | 9 kts | 7° |
| 2026-05-07 12:37 | 49.49616 | 11.08431 | 1034 ft | 12 kts | 95° |
| 2026-05-07 12:37 | 49.49599 | 11.08596 | 1036 ft | 19 kts | 99° |
| 2026-05-07 12:37 | 49.49576 | 11.08822 | 1037 ft | 21 kts | 98° |
| 2026-05-07 12:38 | 49.49556 | 11.09026 | 1039 ft | 18 kts | 97° |
| 2026-05-07 12:38 | 49.49540 | 11.09193 | 1042 ft | 14 kts | 98° |
| 2026-05-07 12:38 | 49.49529 | 11.09307 | 1045 ft | 4 kts | 97° |
| 2026-05-07 12:38 | 49.49529 | 11.09312 | 1045 ft | 1 kts | 96° |
| 2026-05-07 12:39 | 49.49528 | 11.09351 | 1045 ft | 7 kts | 83° |
| 2026-05-07 12:39 | 49.49563 | 11.09430 | 1048 ft | 10 kts | 52° |
| 2026-05-07 12:39 | 49.49599 | 11.09505 | 1050 ft | 0 kts | 54° |
| 2026-05-07 12:39 | 49.49600 | 11.09507 | 1050 ft | 1 kts | 54° |
| 2026-05-07 12:40 | 49.49620 | 11.09549 | 1051 ft | 8 kts | 54° |
| 2026-05-07 12:40 | 49.49692 | 11.09563 | 1052 ft | 14 kts | 322° |
| 2026-05-07 12:40 | 49.49708 | 11.09444 | 1051 ft | 13 kts | 278° |
| 2026-05-07 12:40 | 49.49746 | 11.09050 | 1044 ft | 73 kts | 278° |
| 2026-05-07 12:41 | 49.49856 | 11.07942 | 1030 ft | 134 kts | 278° |
| 2026-05-07 12:41 | 49.50012 | 11.06366 | 1392 ft | 148 kts | 277° |
| 2026-05-07 12:41 | 49.50168 | 11.04796 | 2113 ft | 149 kts | 280° |
| 2026-05-07 12:41 | 49.50325 | 11.03184 | 2545 ft | 161 kts | 279° |
| 2026-05-07 12:42 | 49.50501 | 11.01364 | 2846 ft | 183 kts | 278° |
| 2026-05-07 12:42 | 49.50699 | 10.99311 | 3205 ft | 203 kts | 278° |
| 2026-05-07 12:42 | 49.50920 | 10.97047 | 3594 ft | 225 kts | 278° |
| 2026-05-07 12:42 | 49.51163 | 10.94552 | 4121 ft | 243 kts | 277° |
| 2026-05-07 12:43 | 49.51050 | 10.91941 | 4960 ft | 251 kts | 252° |
| 2026-05-07 12:43 | 49.50338 | 10.89468 | 5834 ft | 255 kts | 246° |
| 2026-05-07 12:43 | 49.49570 | 10.86994 | 6741 ft | 258 kts | 246° |
| 2026-05-07 12:43 | 49.48790 | 10.84499 | 7584 ft | 261 kts | 246° |
| 2026-05-07 12:44 | 49.48004 | 10.81969 | 8442 ft | 264 kts | 246° |
| 2026-05-07 12:44 | 49.47109 | 10.79483 | 9285 ft | 270 kts | 235° |
| 2026-05-07 12:44 | 49.45720 | 10.77501 | 10115 ft | 278 kts | 216° |
| 2026-05-07 12:44 | 49.43907 | 10.76327 | 10764 ft | 294 kts | 196° |
| 2026-05-07 12:45 | 49.41770 | 10.76078 | 10984 ft | 322 kts | 184° |
| 2026-05-07 12:45 | 49.39449 | 10.76052 | 11168 ft | 345 kts | 184° |
| 2026-05-07 12:45 | 49.36971 | 10.76032 | 11371 ft | 366 kts | 184° |
| 2026-05-07 12:45 | 49.34393 | 10.76012 | 11927 ft | 374 kts | 183° |
| 2026-05-07 12:46 | 49.31771 | 10.75988 | 12590 ft | 379 kts | 183° |
| 2026-05-07 12:46 | 49.29116 | 10.75953 | 13238 ft | 384 kts | 183° |
| 2026-05-07 12:46 | 49.26428 | 10.75906 | 13829 ft | 389 kts | 183° |
| 2026-05-07 12:46 | 49.23731 | 10.75609 | 13984 ft | 388 kts | 191° |
| 2026-05-07 12:47 | 49.21088 | 10.74687 | 14064 ft | 398 kts | 200° |
| 2026-05-07 12:47 | 49.18438 | 10.73235 | 14064 ft | 408 kts | 202° |
| 2026-05-07 12:47 | 49.15761 | 10.71735 | 14064 ft | 411 kts | 202° |
| 2026-05-07 12:47 | 49.13073 | 10.70238 | 14065 ft | 411 kts | 202° |
| 2026-05-07 12:48 | 49.10316 | 10.69028 | 14065 ft | 415 kts | 192° |
| 2026-05-07 12:48 | 49.07433 | 10.68762 | 14065 ft | 418 kts | 179° |
| 2026-05-07 12:48 | 49.04553 | 10.69523 | 14061 ft | 422 kts | 165° |
| 2026-05-07 12:48 | 49.01855 | 10.71303 | 14057 ft | 425 kts | 151° |
| 2026-05-07 12:49 | 48.99499 | 10.73996 | 14062 ft | 425 kts | 138° |
| 2026-05-07 12:49 | 48.97380 | 10.77136 | 14056 ft | 425 kts | 137° |
| 2026-05-07 12:49 | 48.95256 | 10.80269 | 14054 ft | 425 kts | 137° |
| 2026-05-07 12:49 | 48.93130 | 10.83384 | 14056 ft | 425 kts | 137° |
| 2026-05-07 12:50 | 48.90996 | 10.86497 | 14045 ft | 425 kts | 137° |
| 2026-05-07 12:50 | 48.88863 | 10.89607 | 14046 ft | 425 kts | 137° |
| 2026-05-07 12:50 | 48.86731 | 10.92718 | 14040 ft | 425 kts | 137° |
| 2026-05-07 12:50 | 48.84601 | 10.95830 | 14043 ft | 425 kts | 137° |
| 2026-05-07 12:51 | 48.82472 | 10.98942 | 14041 ft | 425 kts | 137° |
| 2026-05-07 12:51 | 48.80336 | 11.02058 | 14035 ft | 426 kts | 138° |
| 2026-05-07 12:51 | 48.78043 | 11.04890 | 14023 ft | 425 kts | 147° |
| 2026-05-07 12:51 | 48.75485 | 11.07098 | 14025 ft | 422 kts | 157° |
| 2026-05-07 12:52 | 48.72749 | 11.08665 | 14036 ft | 420 kts | 163° |
| 2026-05-07 12:52 | 48.69946 | 11.10090 | 14041 ft | 419 kts | 163° |
| 2026-05-07 12:52 | 48.67183 | 11.11502 | 14045 ft | 419 kts | 163° |
| 2026-05-07 12:52 | 48.64478 | 11.12900 | 14026 ft | 402 kts | 162° |
| 2026-05-07 12:53 | 48.61963 | 11.14806 | 14034 ft | 418 kts | 147° |
| 2026-05-07 12:53 | 48.59841 | 11.17846 | 14028 ft | 425 kts | 130° |
| 2026-05-07 12:53 | 48.58055 | 11.21411 | 14026 ft | 426 kts | 128° |
| 2026-05-07 12:53 | 48.56291 | 11.24995 | 13671 ft | 423 kts | 128° |
| 2026-05-07 12:54 | 48.54561 | 11.28533 | 13212 ft | 414 kts | 128° |
| 2026-05-07 12:54 | 48.52868 | 11.31996 | 12763 ft | 406 kts | 128° |
| 2026-05-07 12:54 | 48.51203 | 11.35386 | 12293 ft | 397 kts | 128° |
| 2026-05-07 12:54 | 48.49578 | 11.38677 | 11852 ft | 382 kts | 129° |
| 2026-05-07 12:55 | 48.48013 | 11.41833 | 11419 ft | 360 kts | 129° |
| 2026-05-07 12:55 | 48.46555 | 11.44766 | 11076 ft | 339 kts | 128° |
| 2026-05-07 12:55 | 48.45333 | 11.47649 | 11008 ft | 314 kts | 120° |
| 2026-05-07 12:55 | 48.44467 | 11.50533 | 11025 ft | 295 kts | 111° |
| 2026-05-07 12:56 | 48.43887 | 11.53460 | 11022 ft | 290 kts | 103° |
| 2026-05-07 12:56 | 48.43573 | 11.56450 | 11023 ft | 289 kts | 95° |
| 2026-05-07 12:56 | 48.43519 | 11.59477 | 11026 ft | 289 kts | 87° |
| 2026-05-07 12:56 | 48.43710 | 11.62491 | 11031 ft | 289 kts | 83° |
| 2026-05-07 12:57 | 48.43951 | 11.65506 | 10874 ft | 292 kts | 83° |
| 2026-05-07 12:57 | 48.44189 | 11.68547 | 10503 ft | 293 kts | 83° |
| 2026-05-07 12:57 | 48.44424 | 11.71589 | 10134 ft | 293 kts | 83° |
| 2026-05-07 12:57 | 48.44657 | 11.74631 | 9755 ft | 293 kts | 84° |
| 2026-05-07 12:58 | 48.44890 | 11.77677 | 9356 ft | 292 kts | 83° |
| 2026-05-07 12:58 | 48.45120 | 11.80711 | 8953 ft | 292 kts | 83° |
| 2026-05-07 12:58 | 48.45350 | 11.83741 | 8566 ft | 290 kts | 83° |
| 2026-05-07 12:58 | 48.45579 | 11.86758 | 8178 ft | 289 kts | 83° |
| 2026-05-07 12:59 | 48.45805 | 11.89752 | 7801 ft | 287 kts | 83° |
| 2026-05-07 12:59 | 48.46030 | 11.92730 | 7423 ft | 286 kts | 83° |
| 2026-05-07 12:59 | 48.46254 | 11.95695 | 7057 ft | 284 kts | 83° |
| 2026-05-07 12:59 | 48.46477 | 11.98647 | 6678 ft | 283 kts | 83° |
| 2026-05-07 13:00 | 48.46698 | 12.01601 | 6304 ft | 287 kts | 83° |
| 2026-05-07 13:00 | 48.46921 | 12.04606 | 5916 ft | 289 kts | 83° |
| 2026-05-07 13:00 | 48.47145 | 12.07607 | 5526 ft | 288 kts | 83° |
| 2026-05-07 13:00 | 48.47368 | 12.10597 | 5140 ft | 286 kts | 83° |
| 2026-05-07 13:01 | 48.47586 | 12.13571 | 4759 ft | 284 kts | 83° |
| 2026-05-07 13:01 | 48.47800 | 12.16517 | 4372 ft | 282 kts | 83° |
| 2026-05-07 13:01 | 48.48014 | 12.19445 | 4026 ft | 277 kts | 83° |
| 2026-05-07 13:01 | 48.48218 | 12.22252 | 3990 ft | 263 kts | 83° |
| 2026-05-07 13:02 | 48.48413 | 12.24959 | 3992 ft | 258 kts | 83° |
| 2026-05-07 13:02 | 48.48611 | 12.27650 | 3995 ft | 259 kts | 82° |
| 2026-05-07 13:02 | 48.48519 | 12.30334 | 3993 ft | 258 kts | 108° |
| 2026-05-07 13:02 | 48.47599 | 12.32620 | 3996 ft | 255 kts | 140° |
| 2026-05-07 13:03 | 48.46086 | 12.33896 | 3997 ft | 247 kts | 168° |
| 2026-05-07 13:03 | 48.44437 | 12.34152 | 3991 ft | 235 kts | 194° |
| 2026-05-07 13:03 | 48.43002 | 12.33179 | 3995 ft | 223 kts | 225° |
| 2026-05-07 13:03 | 48.41945 | 12.31489 | 3998 ft | 222 kts | 233° |
| 2026-05-07 13:04 | 48.40969 | 12.29688 | 3988 ft | 222 kts | 234° |
| 2026-05-07 13:04 | 48.40170 | 12.27724 | 3993 ft | 219 kts | 253° |
| 2026-05-07 13:04 | 48.39897 | 12.25490 | 3997 ft | 219 kts | 265° |
| 2026-05-07 13:04 | 48.39736 | 12.23199 | 3996 ft | 221 kts | 265° |
| 2026-05-07 13:05 | 48.39574 | 12.20931 | 3994 ft | 211 kts | 265° |
| 2026-05-07 13:05 | 48.39420 | 12.18820 | 3989 ft | 195 kts | 264° |
| 2026-05-07 13:05 | 48.39278 | 12.16881 | 3994 ft | 180 kts | 265° |
| 2026-05-07 13:05 | 48.39147 | 12.15087 | 4029 ft | 169 kts | 264° |
| 2026-05-07 13:06 | 48.39019 | 12.13328 | 4011 ft | 168 kts | 264° |
| 2026-05-07 13:06 | 48.38890 | 12.11580 | 3998 ft | 167 kts | 265° |
| 2026-05-07 13:06 | 48.38763 | 12.09853 | 3996 ft | 165 kts | 265° |
| 2026-05-07 13:06 | 48.38636 | 12.08125 | 4003 ft | 167 kts | 265° |
| 2026-05-07 13:07 | 48.38509 | 12.06403 | 4001 ft | 165 kts | 265° |
| 2026-05-07 13:07 | 48.38382 | 12.04694 | 4006 ft | 165 kts | 264° |
| 2026-05-07 13:07 | 48.38255 | 12.02970 | 4006 ft | 166 kts | 265° |
| 2026-05-07 13:07 | 48.38126 | 12.01246 | 3935 ft | 165 kts | 265° |
| 2026-05-07 13:08 | 48.37998 | 11.99527 | 3767 ft | 166 kts | 264° |
| 2026-05-07 13:08 | 48.37869 | 11.97801 | 3567 ft | 167 kts | 265° |
| 2026-05-07 13:08 | 48.37736 | 11.96000 | 3345 ft | 187 kts | 265° |
| 2026-05-07 13:08 | 48.37587 | 11.94016 | 3081 ft | 190 kts | 265° |
| 2026-05-07 13:09 | 48.37443 | 11.92125 | 2837 ft | 173 kts | 266° |
| 2026-05-07 13:09 | 48.37316 | 11.90455 | 2615 ft | 151 kts | 266° |
| 2026-05-07 13:09 | 48.37203 | 11.88946 | 2436 ft | 139 kts | 265° |
| 2026-05-07 13:09 | 48.37099 | 11.87515 | 2178 ft | 136 kts | 265° |
| 2026-05-07 13:10 | 48.36994 | 11.86095 | 1981 ft | 136 kts | 266° |
| 2026-05-07 13:10 | 48.36889 | 11.84687 | 1857 ft | 135 kts | 264° |
| 2026-05-07 13:10 | 48.36777 | 11.83291 | 1692 ft | 135 kts | 264° |
| 2026-05-07 13:10 | 48.36671 | 11.81893 | 1507 ft | 134 kts | 266° |
| 2026-05-07 13:11 | 48.36580 | 11.80672 | 1480 ft | 96 kts | 263° |
| 2026-05-07 13:11 | 48.36522 | 11.79939 | 1474 ft | 48 kts | 259° |
| 2026-05-07 13:11 | 48.36418 | 11.79636 | 1478 ft | 24 kts | 233° |
| 2026-05-07 13:11 | 48.36320 | 11.79438 | 1475 ft | 24 kts | 234° |
| 2026-05-07 13:12 | 48.36218 | 11.79298 | 1485 ft | 18 kts | 186° |
| 2026-05-07 13:12 | 48.36097 | 11.79312 | 1483 ft | 16 kts | 172° |
| 2026-05-07 13:12 | 48.35999 | 11.79331 | 1482 ft | 9 kts | 173° |
| 2026-05-07 13:12 | 48.35964 | 11.79337 | 1476 ft | 0 kts | 173° |
| 2026-05-07 13:13 | 48.35963 | 11.79338 | 1476 ft | 2 kts | 173° |
| 2026-05-07 13:14 | 48.35920 | 11.79351 | 1471 ft | 9 kts | 152° |
| 2026-05-07 13:14 | 48.35870 | 11.79382 | 1478 ft | 7 kts | 174° |
| 2026-05-07 13:14 | 48.35825 | 11.79389 | 1480 ft | 6 kts | 173° |
| 2026-05-07 13:14 | 48.35789 | 11.79400 | 1482 ft | 5 kts | 159° |
| 2026-05-07 13:15 | 48.35770 | 11.79453 | 1482 ft | 9 kts | 88° |
| 2026-05-07 13:15 | 48.35748 | 11.79534 | 1481 ft | 9 kts | 159° |
| 2026-05-07 13:15 | 48.35720 | 11.79568 | 1485 ft | 5 kts | 85° |
| 2026-05-07 13:15 | 48.35725 | 11.79622 | 1485 ft | 8 kts | 83° |
| 2026-05-07 13:16 | 48.35730 | 11.79693 | 1482 ft | 5 kts | 83° |
| 2026-05-07 13:16 | 48.35731 | 11.79698 | 1481 ft | 0 kts | 83° |